createdAt,value
2019-03-31T00:02:26.542Z,21.95
2019-03-31T00:04:55.535Z,19.02
2019-03-31T00:07:24.470Z,18.40
2019-03-31T00:09:53.486Z,19.30
2019-03-31T00:12:30.489Z,18.12
2019-03-31T00:14:58.358Z,19.02
2019-03-31T00:17:26.243Z,18.87
2019-03-31T00:19:54.618Z,19.27
2019-03-31T00:22:22.614Z,19.00
2019-03-31T00:24:55.159Z,17.25
2019-03-31T00:27:23.438Z,17.82
2019-03-31T00:29:52.389Z,17.70
2019-03-31T00:32:21.143Z,15.35
2019-03-31T00:34:49.977Z,18.27
2019-03-31T00:37:19.207Z,18.70
2019-03-31T00:39:47.174Z,17.48
2019-03-31T00:42:16.690Z,19.10
2019-03-31T00:44:44.660Z,18.42
2019-03-31T00:47:13.262Z,18.35
2019-03-31T00:49:43.568Z,17.17
2019-03-31T00:52:12.862Z,18.40
2019-03-31T00:54:42.067Z,19.02
2019-03-31T00:57:10.974Z,19.00
2019-03-31T00:59:44.026Z,18.10
2019-03-31T01:02:17.237Z,17.92
2019-03-31T01:04:45.754Z,17.82
2019-03-31T01:07:15.510Z,18.42
2019-03-31T01:09:46.468Z,18.10
2019-03-31T01:12:15.972Z,17.82
2019-03-31T01:14:44.837Z,18.87
2019-03-31T01:17:14.098Z,17.92
2019-03-31T01:19:43.480Z,17.67
2019-03-31T01:22:12.219Z,18.60
2019-03-31T01:24:41.359Z,18.67
2019-03-31T01:27:12.239Z,17.73
2019-03-31T01:29:40.470Z,17.57
2019-03-31T01:32:13.386Z,17.32
2019-03-31T01:34:42.161Z,19.95
2019-03-31T01:37:12.154Z,18.98
2019-03-31T01:39:41.455Z,18.98
2019-03-31T01:42:11.090Z,19.50
2019-03-31T01:44:39.907Z,19.48
2019-03-31T01:47:09.463Z,18.98
2019-03-31T01:49:38.666Z,19.42
2019-03-31T01:52:07.448Z,19.87
2019-03-31T01:54:36.730Z,18.15
2019-03-31T01:57:08.285Z,18.23
2019-03-31T01:59:36.270Z,18.82
2019-03-31T02:02:05.112Z,20.32
2019-03-31T02:04:34.039Z,18.32
2019-03-31T02:07:09.712Z,19.15
2019-03-31T02:09:38.920Z,18.95
2019-03-31T02:12:07.869Z,18.62
2019-03-31T02:14:37.203Z,18.05
2019-03-31T02:17:05.479Z,18.35
2019-03-31T02:19:35.090Z,18.05
2019-03-31T02:22:04.094Z,19.10
2019-03-31T02:24:33.272Z,19.67
2019-03-31T02:27:02.162Z,19.48
2019-03-31T02:29:37.243Z,19.50
2019-03-31T02:32:22.721Z,18.50
2019-03-31T02:34:35.802Z,19.65
2019-03-31T02:37:03.677Z,20.62
2019-03-31T02:39:32.320Z,20.68
2019-03-31T02:42:07.092Z,21.30
2019-03-31T02:44:35.247Z,19.80
2019-03-31T02:47:02.920Z,21.75
2019-03-31T02:49:30.519Z,21.48
2019-03-31T02:51:58.245Z,22.15
2019-03-31T02:54:29.895Z,22.48
2019-03-31T02:56:57.923Z,22.48
2019-03-31T02:59:26.800Z,23.35
2019-03-31T03:01:56.342Z,23.85
2019-03-31T03:04:33.270Z,24.82
2019-03-31T03:07:02.691Z,23.45
2019-03-31T03:09:31.953Z,24.20
2019-03-31T03:12:02.296Z,24.05
2019-03-31T03:14:35.855Z,25.35
2019-03-31T03:17:04.460Z,23.70
2019-03-31T03:19:32.964Z,24.50
2019-03-31T03:22:01.024Z,23.45
2019-03-31T03:24:29.200Z,24.37
2019-03-31T03:27:00.952Z,24.57
2019-03-31T03:29:29.112Z,25.85
2019-03-31T03:31:57.214Z,25.27
2019-03-31T03:34:25.362Z,26.35
2019-03-31T03:36:54.322Z,27.40
2019-03-31T03:39:28.859Z,26.77
2019-03-31T03:41:57.171Z,27.45
2019-03-31T03:44:25.123Z,30.57
2019-03-31T03:46:53.886Z,28.80
2019-03-31T03:49:27.397Z,29.52
2019-03-31T03:51:56.409Z,30.05
2019-03-31T03:54:25.611Z,28.90
2019-03-31T03:56:53.516Z,30.68
2019-03-31T03:59:22.724Z,28.55
2019-03-31T04:01:51.705Z,31.70
2019-03-31T04:04:20.527Z,29.18
2019-03-31T04:06:49.412Z,30.57
2019-03-31T04:09:18.846Z,29.98
2019-03-31T04:11:48.469Z,29.48
2019-03-31T04:14:20.228Z,30.65
2019-03-31T04:16:48.591Z,31.02
2019-03-31T04:19:16.975Z,34.08
2019-03-31T04:21:46.073Z,32.65
2019-03-31T04:24:15.168Z,30.23
2019-03-31T04:26:44.375Z,31.75
2019-03-31T04:29:13.660Z,34.48
2019-03-31T04:31:41.546Z,30.95
2019-03-31T04:34:11.466Z,31.62
2019-03-31T04:36:40.419Z,33.65
2019-03-31T04:39:12.371Z,31.35
2019-03-31T04:41:40.587Z,32.55
2019-03-31T04:44:08.303Z,33.02
2019-03-31T04:46:37.498Z,31.82
2019-03-31T04:49:05.166Z,34.08
2019-03-31T04:51:38.103Z,32.45
2019-03-31T04:54:06.722Z,32.75
2019-03-31T04:56:35.806Z,34.55
2019-03-31T04:59:04.481Z,33.73
2019-03-31T05:01:33.458Z,34.45
2019-03-31T05:04:05.946Z,33.70
2019-03-31T05:06:34.619Z,37.48
2019-03-31T05:09:04.972Z,36.23
2019-03-31T05:11:33.617Z,34.33
2019-03-31T05:14:02.357Z,37.40
2019-03-31T05:16:31.902Z,34.25
2019-03-31T05:19:00.812Z,34.58
2019-03-31T05:21:29.905Z,39.13
2019-03-31T05:23:57.527Z,37.75
2019-03-31T05:26:26.167Z,38.80
2019-03-31T05:28:57.532Z,39.98
2019-03-31T05:31:26.289Z,40.35
2019-03-31T05:33:55.357Z,39.38
2019-03-31T05:36:24.176Z,38.95
2019-03-31T05:38:53.005Z,39.00
2019-03-31T05:41:22.800Z,38.33
2019-03-31T05:44:04.844Z,37.83
2019-03-31T05:46:22.050Z,38.50
2019-03-31T05:48:50.939Z,38.20
2019-03-31T05:51:28.579Z,38.20
2019-03-31T05:53:56.202Z,38.20
2019-03-31T05:56:24.819Z,38.90
2019-03-31T05:58:52.434Z,41.28
2019-03-31T06:01:20.655Z,37.35
2019-03-31T06:03:50.762Z,39.45
2019-03-31T06:06:19.414Z,37.38
2019-03-31T06:08:48.666Z,40.15
2019-03-31T06:11:17.964Z,40.67
2019-03-31T06:13:51.491Z,38.53
2019-03-31T06:16:20.073Z,36.83
2019-03-31T06:18:47.846Z,37.85
2019-03-31T06:21:16.633Z,37.28
2019-03-31T06:23:44.500Z,36.95
2019-03-31T06:26:20.385Z,36.93
2019-03-31T06:28:48.709Z,35.23
2019-03-31T06:31:17.199Z,34.10
2019-03-31T06:33:46.539Z,35.38
2019-03-31T06:36:14.461Z,33.60
2019-03-31T06:38:45.268Z,34.98
2019-03-31T06:41:14.482Z,33.98
2019-03-31T06:43:43.694Z,33.33
2019-03-31T06:46:11.986Z,34.18
2019-03-31T06:48:41.637Z,33.18
2019-03-31T06:51:12.607Z,32.08
2019-03-31T06:53:41.210Z,32.80
2019-03-31T06:56:10.386Z,32.75
2019-03-31T06:58:39.899Z,32.70
2019-03-31T07:01:09.318Z,34.90
2019-03-31T07:03:39.418Z,31.73
2019-03-31T07:06:08.481Z,32.25
2019-03-31T07:08:37.265Z,29.60
2019-03-31T07:11:07.798Z,30.35
2019-03-31T07:13:35.689Z,30.12
2019-03-31T07:16:08.375Z,30.20
2019-03-31T07:18:37.249Z,28.27
2019-03-31T07:21:06.579Z,30.68
2019-03-31T07:23:34.955Z,29.60
2019-03-31T07:26:03.954Z,29.90
2019-03-31T07:28:35.307Z,29.42
2019-03-31T07:31:04.039Z,31.55
2019-03-31T07:33:32.645Z,28.20
2019-03-31T07:36:01.336Z,28.12
2019-03-31T07:38:38.873Z,28.42
2019-03-31T07:41:12.568Z,27.35
2019-03-31T07:43:33.167Z,27.30
2019-03-31T07:46:01.835Z,30.05
2019-03-31T07:48:30.478Z,49.38
2019-03-31T07:51:02.653Z,28.62
2019-03-31T07:53:30.910Z,30.00
2019-03-31T07:55:59.833Z,28.70
2019-03-31T07:58:27.951Z,28.47
2019-03-31T08:01:01.818Z,28.00
2019-03-31T08:03:30.522Z,27.95
2019-03-31T08:05:58.366Z,29.57
2019-03-31T08:08:26.306Z,28.92
2019-03-31T08:10:54.442Z,29.30
2019-03-31T08:13:28.031Z,28.65
2019-03-31T08:15:56.269Z,29.27
2019-03-31T08:18:24.815Z,28.07
2019-03-31T08:20:52.796Z,27.75
2019-03-31T08:23:22.331Z,28.35
2019-03-31T08:25:57.238Z,25.17
2019-03-31T08:28:25.170Z,26.37
2019-03-31T08:30:52.838Z,27.42
2019-03-31T08:33:22.443Z,24.98
2019-03-31T08:35:54.438Z,25.72
2019-03-31T08:38:24.502Z,26.65
2019-03-31T08:40:52.612Z,25.35
2019-03-31T08:43:20.890Z,23.60
2019-03-31T08:45:48.956Z,23.85
2019-03-31T08:48:16.916Z,26.12
2019-03-31T08:50:48.995Z,23.90
2019-03-31T08:53:16.815Z,24.82
2019-03-31T08:55:44.572Z,24.95
2019-03-31T08:58:13.276Z,22.05
2019-03-31T09:00:54.860Z,23.35
2019-03-31T09:03:22.821Z,22.05
2019-03-31T09:06:01.686Z,20.55
2019-03-31T09:08:22.299Z,19.85
2019-03-31T09:10:51.168Z,19.37
2019-03-31T09:13:20.374Z,18.30
2019-03-31T09:15:49.070Z,17.70
2019-03-31T09:18:17.890Z,18.15
2019-03-31T09:20:45.752Z,19.35
2019-03-31T09:23:14.271Z,20.70
2019-03-31T09:25:47.453Z,19.50
2019-03-31T09:28:15.183Z,20.08
2019-03-31T09:30:44.009Z,18.45
2019-03-31T09:33:12.644Z,16.85
2019-03-31T09:35:42.015Z,17.37
2019-03-31T09:38:13.602Z,17.23
2019-03-31T09:40:41.184Z,15.40
2019-03-31T09:43:10.428Z,15.75
2019-03-31T09:45:38.436Z,13.90
2019-03-31T09:48:07.605Z,14.55
2019-03-31T09:50:39.358Z,14.38
2019-03-31T09:53:07.426Z,13.85
2019-03-31T09:55:36.126Z,12.75
2019-03-31T09:58:05.139Z,11.85
2019-03-31T10:00:47.077Z,12.25
2019-03-31T10:03:16.010Z,13.22
2019-03-31T10:05:47.691Z,12.98
2019-03-31T10:08:15.846Z,11.83
2019-03-31T10:10:45.535Z,13.05
2019-03-31T10:13:14.743Z,12.53
2019-03-31T10:15:43.850Z,12.28
2019-03-31T10:18:12.739Z,12.15
2019-03-31T10:20:46.734Z,10.82
2019-03-31T10:23:16.954Z,11.20
2019-03-31T10:25:45.650Z,10.13
2019-03-31T10:28:14.026Z,9.53
2019-03-31T10:30:41.989Z,9.45
2019-03-31T10:33:15.731Z,10.10
2019-03-31T10:35:43.955Z,10.55
2019-03-31T10:38:11.519Z,10.48
2019-03-31T10:40:39.911Z,10.20
2019-03-31T10:43:08.069Z,9.55
2019-03-31T10:45:40.288Z,9.85
2019-03-31T10:48:19.677Z,10.72
2019-03-31T10:50:40.134Z,10.15
2019-03-31T10:53:08.129Z,10.08
2019-03-31T10:55:42.078Z,9.80
2019-03-31T10:58:10.955Z,9.15
2019-03-31T11:00:40.123Z,8.95
2019-03-31T11:03:09.260Z,9.60
2019-03-31T11:05:40.411Z,9.20
2019-03-31T11:08:10.598Z,9.25
2019-03-31T11:10:38.223Z,8.70
2019-03-31T11:13:06.087Z,9.35
2019-03-31T11:15:35.562Z,9.85
2019-03-31T11:18:08.747Z,8.80
2019-03-31T11:20:37.578Z,10.15
2019-03-31T11:23:17.405Z,8.68
2019-03-31T11:25:49.806Z,8.45
2019-03-31T11:28:18.116Z,8.45
2019-03-31T11:30:46.247Z,8.63
2019-03-31T11:33:14.797Z,9.20
2019-03-31T11:35:43.475Z,8.73
2019-03-31T11:38:16.809Z,10.05
2019-03-31T11:40:45.976Z,9.50
2019-03-31T11:43:13.835Z,8.75
2019-03-31T11:45:41.867Z,8.95
2019-03-31T11:48:09.583Z,9.48
2019-03-31T11:50:45.419Z,8.80
2019-03-31T11:53:13.495Z,8.68
2019-03-31T11:55:42.147Z,9.98
2019-03-31T11:58:10.208Z,9.20
2019-03-31T12:00:45.295Z,9.80
2019-03-31T12:03:13.291Z,9.70
2019-03-31T12:05:41.582Z,9.38
2019-03-31T12:08:10.020Z,9.35
2019-03-31T12:10:38.010Z,9.30
2019-03-31T12:13:17.256Z,9.05
2019-03-31T12:15:45.828Z,9.70
2019-03-31T12:18:14.470Z,9.10
2019-03-31T12:20:43.325Z,8.33
2019-03-31T12:23:12.064Z,8.43
2019-03-31T12:25:40.446Z,7.97
2019-03-31T12:28:09.279Z,8.93
2019-03-31T12:30:36.864Z,8.90
2019-03-31T12:33:04.582Z,8.58
2019-03-31T12:35:40.212Z,9.13
2019-03-31T12:38:07.999Z,8.63
2019-03-31T12:40:36.239Z,8.53
2019-03-31T12:43:05.119Z,8.80
2019-03-31T12:45:37.859Z,8.10
2019-03-31T12:48:05.726Z,8.88
2019-03-31T12:50:33.421Z,7.60
2019-03-31T12:53:01.247Z,8.70
2019-03-31T12:55:29.290Z,9.10
2019-03-31T12:57:57.127Z,8.00
2019-03-31T13:00:29.461Z,8.30
2019-03-31T13:02:57.494Z,9.03
2019-03-31T13:05:26.230Z,7.95
2019-03-31T13:07:56.549Z,7.67
2019-03-31T13:10:25.774Z,7.87
2019-03-31T13:12:59.361Z,8.40
2019-03-31T13:15:28.009Z,7.43
2019-03-31T13:17:56.363Z,7.65
2019-03-31T13:20:24.280Z,7.63
2019-03-31T13:22:52.723Z,7.20
2019-03-31T13:25:25.076Z,7.00
2019-03-31T13:27:54.193Z,6.77
2019-03-31T13:30:22.657Z,6.30
2019-03-31T13:32:50.687Z,7.37
2019-03-31T13:35:19.913Z,6.90
2019-03-31T13:37:53.343Z,7.30
2019-03-31T13:40:21.918Z,8.20
2019-03-31T13:42:50.406Z,8.80
2019-03-31T13:45:18.529Z,7.80
2019-03-31T13:47:46.887Z,7.30
2019-03-31T13:50:18.587Z,7.10
2019-03-31T13:52:50.273Z,7.12
2019-03-31T13:55:18.363Z,6.80
2019-03-31T13:57:47.564Z,6.67
2019-03-31T14:00:36.494Z,7.00
2019-03-31T14:03:04.585Z,7.47
2019-03-31T14:05:32.748Z,6.45
2019-03-31T14:08:05.422Z,7.00
2019-03-31T14:10:33.208Z,6.42
2019-03-31T14:13:01.963Z,6.47
2019-03-31T14:15:29.610Z,6.60
2019-03-31T14:17:58.470Z,6.50
2019-03-31T14:20:30.438Z,5.67
2019-03-31T14:22:58.877Z,5.70
2019-03-31T14:25:26.775Z,6.80
2019-03-31T14:27:55.867Z,6.13
2019-03-31T14:30:24.332Z,5.97
2019-03-31T14:32:56.353Z,5.17
2019-03-31T14:35:24.661Z,6.03
2019-03-31T14:37:52.675Z,6.27
2019-03-31T14:40:21.082Z,5.80
2019-03-31T14:42:52.829Z,5.63
2019-03-31T14:45:49.630Z,5.67
2019-03-31T14:48:22.114Z,5.17
2019-03-31T14:50:49.923Z,5.43
2019-03-31T14:53:18.028Z,4.20
2019-03-31T14:55:45.806Z,4.25
2019-03-31T14:58:18.638Z,4.07
2019-03-31T15:00:46.500Z,3.83
2019-03-31T15:03:17.856Z,4.90
2019-03-31T15:05:44.854Z,4.97
2019-03-31T15:08:13.136Z,4.80
2019-03-31T15:10:47.461Z,4.65
2019-03-31T15:13:15.939Z,4.90
2019-03-31T15:15:44.107Z,5.72
2019-03-31T15:18:12.070Z,5.33
2019-03-31T15:20:40.095Z,4.40
2019-03-31T15:23:12.452Z,4.53
2019-03-31T15:25:43.191Z,4.90
2019-03-31T15:28:11.367Z,4.60
2019-03-31T15:30:40.230Z,4.83
2019-03-31T15:33:14.419Z,4.50
2019-03-31T15:35:42.809Z,4.50
2019-03-31T15:38:10.824Z,5.08
2019-03-31T15:40:39.365Z,5.10
2019-03-31T15:43:07.857Z,4.17
2019-03-31T15:45:40.771Z,5.17
2019-03-31T15:48:09.307Z,5.50
2019-03-31T15:50:37.274Z,4.90
2019-03-31T15:53:05.281Z,5.83
2019-03-31T15:55:33.000Z,5.70
2019-03-31T15:58:06.461Z,6.42
2019-03-31T16:00:34.627Z,5.83
2019-03-31T16:03:02.763Z,5.60
2019-03-31T16:05:31.499Z,5.65
2019-03-31T16:08:00.525Z,5.17
2019-03-31T16:10:33.013Z,5.60
2019-03-31T16:13:00.991Z,4.83
2019-03-31T16:15:29.568Z,6.22
2019-03-31T16:17:58.866Z,5.03
2019-03-31T16:20:26.831Z,5.45
2019-03-31T16:22:58.195Z,5.10
2019-03-31T16:25:31.575Z,4.80
2019-03-31T16:28:00.071Z,4.55
2019-03-31T16:30:29.250Z,4.83
2019-03-31T16:33:02.463Z,5.05
2019-03-31T16:35:30.261Z,5.45
2019-03-31T16:37:59.100Z,5.25
2019-03-31T16:40:27.936Z,4.75
2019-03-31T16:42:56.452Z,4.50
2019-03-31T16:45:28.725Z,4.72
2019-03-31T16:47:56.436Z,4.62
2019-03-31T16:50:23.832Z,4.15
2019-03-31T16:52:52.758Z,4.58
2019-03-31T16:55:21.924Z,4.12
2019-03-31T16:57:54.591Z,4.53
2019-03-31T17:00:23.552Z,4.25
2019-03-31T17:02:50.890Z,3.55
2019-03-31T17:05:22.152Z,3.52
2019-03-31T17:07:50.146Z,3.90
2019-03-31T17:10:21.885Z,3.58
2019-03-31T17:12:50.707Z,3.85
2019-03-31T17:15:19.227Z,3.55
2019-03-31T17:17:47.328Z,3.65
2019-03-31T17:20:15.863Z,3.80
2019-03-31T17:22:48.303Z,3.50
2019-03-31T17:25:17.083Z,3.10
2019-03-31T17:27:46.655Z,4.03
2019-03-31T17:30:15.086Z,3.30
2019-03-31T17:32:43.130Z,4.00
2019-03-31T17:35:13.147Z,4.10
2019-03-31T17:37:41.723Z,3.80
2019-03-31T17:40:09.201Z,3.00
2019-03-31T17:42:36.798Z,3.05
2019-03-31T17:45:06.010Z,2.67
2019-03-31T17:47:41.491Z,2.60
2019-03-31T17:50:08.845Z,2.98
2019-03-31T17:52:36.174Z,3.05
2019-03-31T17:55:04.561Z,3.15
2019-03-31T17:57:31.998Z,2.55
2019-03-31T18:00:00.855Z,3.37
2019-03-31T18:02:29.483Z,3.27
2019-03-31T18:04:57.158Z,3.25
2019-03-31T18:07:25.725Z,2.80
2019-03-31T18:09:53.862Z,2.90
2019-03-31T18:12:22.028Z,2.50
2019-03-31T18:14:51.169Z,2.58
2019-03-31T18:17:19.255Z,2.75
2019-03-31T18:19:47.297Z,2.90
2019-03-31T18:22:16.575Z,3.20
2019-03-31T18:24:45.245Z,2.90
2019-03-31T18:27:16.426Z,3.02
2019-03-31T18:29:44.708Z,2.60
2019-03-31T18:32:14.627Z,2.60
2019-03-31T18:34:42.479Z,2.95
2019-03-31T18:37:09.630Z,2.92
2019-03-31T18:39:42.434Z,2.50
2019-03-31T18:42:10.132Z,3.15
2019-03-31T18:44:37.020Z,2.50
2019-03-31T18:47:04.823Z,2.52
2019-03-31T18:49:32.837Z,2.80
2019-03-31T18:52:05.333Z,2.20
2019-03-31T18:54:46.328Z,3.30
2019-03-31T18:57:29.471Z,3.05
2019-03-31T19:00:15.349Z,2.77
2019-03-31T19:03:03.059Z,2.55
2019-03-31T19:05:40.195Z,2.75
2019-03-31T19:08:35.986Z,2.90
2019-03-31T19:11:15.128Z,2.87
2019-03-31T19:14:08.377Z,3.55
2019-03-31T19:17:08.764Z,3.05
2019-03-31T19:19:53.732Z,3.40
2019-03-31T19:23:03.209Z,3.72
2019-03-31T19:25:51.508Z,3.10
2019-03-31T19:28:33.415Z,3.72
2019-03-31T19:31:07.672Z,3.25
2019-03-31T19:34:01.668Z,3.25
2019-03-31T19:36:46.328Z,3.75
2019-03-31T19:39:35.196Z,3.20
2019-03-31T19:42:09.129Z,3.90
2019-03-31T19:44:48.390Z,3.47
2019-03-31T19:47:31.859Z,3.05
2019-03-31T19:50:20.199Z,3.25
2019-03-31T19:52:56.014Z,4.00
2019-03-31T19:56:06.885Z,3.00
2019-03-31T19:59:09.693Z,4.37
2019-03-31T20:01:45.017Z,2.67
2019-03-31T20:04:38.964Z,3.40
2019-03-31T20:07:28.350Z,3.17
2019-03-31T20:10:07.128Z,3.20
2019-03-31T20:12:41.394Z,3.15
2019-03-31T20:15:31.782Z,3.65
2019-03-31T20:18:27.175Z,3.20
2019-03-31T20:21:08.663Z,3.42
2019-03-31T20:23:44.085Z,2.70
2019-03-31T20:26:43.933Z,3.37
2019-03-31T20:29:29.877Z,2.90
2019-03-31T20:32:24.257Z,2.98
2019-03-31T20:34:59.811Z,3.17
2019-03-31T20:37:48.512Z,2.65
2019-03-31T20:40:51.149Z,3.27
2019-03-31T20:43:41.489Z,2.77
2019-03-31T20:46:11.016Z,3.00
2019-03-31T20:48:39.492Z,2.65
2019-03-31T20:51:08.257Z,2.60
2019-03-31T20:53:37.162Z,3.00
2019-03-31T20:56:09.319Z,3.15
2019-03-31T20:58:36.569Z,2.67
2019-03-31T21:01:03.786Z,3.90
2019-03-31T21:03:32.094Z,2.33
2019-03-31T21:06:00.142Z,3.00
2019-03-31T21:08:32.243Z,2.25
2019-03-31T21:10:59.691Z,2.80
2019-03-31T21:13:28.410Z,2.55
2019-03-31T21:15:55.932Z,2.10
2019-03-31T21:18:24.611Z,2.00
2019-03-31T21:20:57.254Z,3.22
2019-03-31T21:23:24.996Z,2.70
2019-03-31T21:25:54.150Z,2.58
2019-03-31T21:28:21.811Z,2.30
2019-03-31T21:30:50.444Z,2.62
2019-03-31T21:33:21.174Z,2.35
2019-03-31T21:35:50.843Z,2.12
2019-03-31T21:38:19.843Z,2.25
2019-03-31T21:40:48.320Z,2.10
2019-03-31T21:43:15.574Z,1.92
2019-03-31T21:45:46.714Z,2.15
2019-03-31T21:48:16.031Z,2.20
2019-03-31T21:50:44.297Z,1.90
2019-03-31T21:53:11.444Z,1.75
2019-03-31T21:55:39.767Z,2.15
2019-03-31T21:58:11.771Z,2.12
2019-03-31T22:00:50.027Z,1.72
2019-03-31T22:03:18.313Z,1.57
2019-03-31T22:05:46.854Z,1.47
2019-03-31T22:08:17.756Z,2.17
2019-03-31T22:10:46.890Z,1.65
2019-03-31T22:13:15.248Z,1.50
2019-03-31T22:15:43.935Z,2.95
2019-03-31T22:18:14.243Z,1.70
2019-03-31T22:20:47.455Z,1.62
2019-03-31T22:23:15.751Z,1.72
2019-03-31T22:25:44.575Z,1.57
2019-03-31T22:28:13.435Z,1.90
2019-03-31T22:30:44.208Z,2.30
2019-03-31T22:33:12.351Z,1.57
2019-03-31T22:35:43.218Z,1.20
2019-03-31T22:38:10.829Z,2.72
2019-03-31T22:40:39.119Z,2.20
2019-03-31T22:43:09.447Z,1.50
2019-03-31T22:45:37.724Z,1.60
2019-03-31T22:48:05.107Z,2.25
2019-03-31T22:50:33.772Z,2.00
2019-03-31T22:53:02.148Z,1.52
2019-03-31T22:55:32.894Z,1.92
2019-03-31T22:58:00.967Z,1.40
2019-03-31T23:00:29.368Z,1.75
2019-03-31T23:02:57.710Z,1.60
2019-03-31T23:05:26.506Z,1.77
2019-03-31T23:07:56.413Z,1.90
2019-03-31T23:10:24.859Z,1.20
2019-03-31T23:12:53.591Z,1.57
2019-03-31T23:15:22.268Z,1.92
2019-03-31T23:17:50.952Z,1.40
2019-03-31T23:20:22.487Z,1.50
2019-03-31T23:22:50.938Z,1.70
2019-03-31T23:25:19.890Z,1.35
2019-03-31T23:27:48.028Z,1.87
2019-03-31T23:30:16.526Z,1.80
2019-03-31T23:32:48.064Z,2.75
2019-03-31T23:35:15.351Z,1.55
2019-03-31T23:37:43.940Z,1.65
2019-03-31T23:40:12.415Z,1.72
2019-03-31T23:42:40.490Z,2.20
2019-03-31T23:45:08.757Z,1.45
2019-03-31T23:47:39.091Z,2.08
2019-03-31T23:50:07.928Z,2.02
2019-03-31T23:52:36.153Z,1.82
2019-03-31T23:55:04.634Z,2.08
2019-03-31T23:57:41.108Z,1.60
